createdAt,value
2023-05-17T00:00:57.632Z,50.849506
2023-05-17T00:01:57.556Z,50.849503
2023-05-17T00:02:57.564Z,50.849514
2023-05-17T00:03:57.519Z,50.849514
2023-05-17T00:04:57.570Z,50.849503
2023-05-17T00:05:57.549Z,50.849491
2023-05-17T00:06:57.500Z,50.849491
2023-05-17T00:07:57.499Z,50.849533
2023-05-17T00:08:57.508Z,50.849514
2023-05-17T00:09:57.497Z,50.849541
2023-05-17T00:10:57.477Z,50.849552
2023-05-17T00:11:57.502Z,50.849552
2023-05-17T00:12:57.490Z,50.849525
2023-05-17T00:13:57.480Z,50.849552
2023-05-17T00:14:57.417Z,50.849510
2023-05-17T00:15:57.466Z,50.849525
2023-05-17T00:16:57.481Z,50.849537
2023-05-17T00:17:57.662Z,50.849529
2023-05-17T00:18:57.471Z,50.849533
2023-05-17T00:19:57.458Z,50.849525
2023-05-17T00:20:57.372Z,50.849548
2023-05-17T00:21:57.382Z,50.849548
2023-05-17T00:22:57.355Z,50.849564
2023-05-17T00:23:57.374Z,50.849548
2023-05-17T00:24:57.341Z,50.849541
2023-05-17T00:25:57.465Z,50.849567
2023-05-17T00:26:57.317Z,50.849556
2023-05-17T00:27:57.327Z,50.849537
2023-05-17T00:28:57.313Z,50.849571
2023-05-17T00:29:57.303Z,50.849564
2023-05-17T00:30:57.295Z,50.849560
2023-05-17T00:31:57.277Z,50.849571
2023-05-17T00:32:57.420Z,50.849545
2023-05-17T00:33:57.278Z,50.849564
2023-05-17T00:34:57.300Z,50.849522
2023-05-17T00:35:57.265Z,50.849514
2023-05-17T00:36:57.361Z,50.849552
2023-05-17T00:37:57.261Z,50.849503
2023-05-17T00:38:57.208Z,50.849506
2023-05-17T00:39:57.256Z,50.849533
2023-05-17T00:40:57.212Z,50.849560
2023-05-17T00:41:57.205Z,50.849564
2023-05-17T00:42:57.286Z,50.849529
2023-05-17T00:43:57.214Z,50.849564
2023-05-17T00:44:57.199Z,50.849529
2023-05-17T00:45:57.162Z,50.849552
2023-05-17T00:46:57.148Z,50.849545
2023-05-17T00:47:57.342Z,50.849514
2023-05-17T00:48:57.383Z,50.849560
2023-05-17T00:49:57.143Z,50.849545
2023-05-17T00:50:57.117Z,50.849567
2023-05-17T00:51:57.125Z,50.849560
2023-05-17T00:52:57.103Z,50.849560
2023-05-17T00:53:57.102Z,50.849529
2023-05-17T00:54:57.124Z,50.849541
2023-05-17T00:55:57.082Z,50.849567
2023-05-17T00:56:57.151Z,50.849537
2023-05-17T00:57:57.067Z,50.849564
2023-05-17T00:58:57.043Z,50.849548
2023-05-17T00:59:57.055Z,50.849522
2023-05-17T01:00:57.044Z,50.849598
2023-05-17T01:01:57.043Z,50.849586
2023-05-17T01:02:57.090Z,50.849579
2023-05-17T01:03:57.194Z,50.849571
2023-05-17T01:04:57.304Z,50.849552
2023-05-17T01:05:56.989Z,50.849533
2023-05-17T01:06:56.994Z,50.849533
2023-05-17T01:07:56.997Z,50.849537
2023-05-17T01:08:56.947Z,50.849552
2023-05-17T01:09:56.954Z,50.849575
2023-05-17T01:10:56.956Z,50.849579
2023-05-17T01:11:56.988Z,50.849567
2023-05-17T01:12:56.949Z,50.849590
2023-05-17T01:13:56.924Z,50.849575
2023-05-17T01:14:56.900Z,50.849590
2023-05-17T01:15:56.901Z,50.849560
2023-05-17T01:16:56.897Z,50.849548
2023-05-17T01:17:57.008Z,50.849564
2023-05-17T01:18:56.976Z,50.849579
2023-05-17T01:19:56.996Z,50.849560
2023-05-17T01:20:56.927Z,50.849556
2023-05-17T01:21:56.910Z,50.849560
2023-05-17T01:22:56.847Z,50.849567
2023-05-17T01:23:56.854Z,50.849586
2023-05-17T01:24:56.835Z,50.849567
2023-05-17T01:25:56.828Z,50.849575
2023-05-17T01:26:56.807Z,50.849594
2023-05-17T01:27:56.843Z,50.849598
2023-05-17T01:28:56.798Z,50.849583
2023-05-17T01:29:56.800Z,50.849575
2023-05-17T01:30:56.813Z,50.849571
2023-05-17T01:31:56.779Z,50.849556
2023-05-17T01:32:56.807Z,50.849598
2023-05-17T01:33:56.817Z,50.849583
2023-05-17T01:34:56.812Z,50.849590
2023-05-17T01:35:56.768Z,50.849606
2023-05-17T01:36:56.823Z,50.849617
2023-05-17T01:37:56.768Z,50.849617
2023-05-17T01:38:56.775Z,50.849632
2023-05-17T01:39:56.738Z,50.849590
2023-05-17T01:40:56.712Z,50.849583
2023-05-17T01:41:56.734Z,50.849606
2023-05-17T01:42:56.705Z,50.849640
2023-05-17T01:43:56.705Z,50.849583
2023-05-17T01:44:56.726Z,50.849552
2023-05-17T01:45:56.733Z,50.849586
2023-05-17T01:46:56.659Z,50.849613
2023-05-17T01:47:56.725Z,50.849640
2023-05-17T01:48:56.662Z,50.849609
2023-05-17T01:49:56.640Z,50.849586
2023-05-17T01:50:56.659Z,50.849586
2023-05-17T01:51:56.634Z,50.849556
2023-05-17T01:52:56.696Z,50.849590
2023-05-17T01:53:56.615Z,50.849617
2023-05-17T01:54:56.650Z,50.849579
2023-05-17T01:55:56.610Z,50.849602
2023-05-17T01:56:56.613Z,50.849594
2023-05-17T01:57:56.617Z,50.849560
2023-05-17T01:58:56.583Z,50.849567
2023-05-17T01:59:56.737Z,50.849571
2023-05-17T02:00:56.585Z,50.849579
2023-05-17T02:01:56.564Z,50.849579
2023-05-17T02:02:56.657Z,50.849583
2023-05-17T02:03:56.572Z,50.849606
2023-05-17T02:04:56.571Z,50.849625
2023-05-17T02:05:56.522Z,50.849602
2023-05-17T02:06:56.526Z,50.849583
2023-05-17T02:07:56.536Z,50.849590
2023-05-17T02:08:56.611Z,50.849602
2023-05-17T02:09:56.504Z,50.849602
2023-05-17T02:10:56.524Z,50.849590
2023-05-17T02:11:56.485Z,50.849579
2023-05-17T02:12:56.452Z,50.849579
2023-05-17T02:13:56.456Z,50.849628
2023-05-17T02:14:56.447Z,50.849606
2023-05-17T02:15:56.449Z,50.849586
2023-05-17T02:16:56.493Z,50.849594
2023-05-17T02:17:56.548Z,50.849617
2023-05-17T02:18:56.998Z,50.849606
2023-05-17T02:19:56.446Z,50.849621
2023-05-17T02:20:56.395Z,50.849598
2023-05-17T02:21:56.400Z,50.849613
2023-05-17T02:22:56.418Z,50.849594
2023-05-17T02:23:56.394Z,50.849586
2023-05-17T02:24:56.424Z,50.849594
2023-05-17T02:25:56.359Z,50.849583
2023-05-17T02:26:56.439Z,50.849590
2023-05-17T02:27:56.342Z,50.849586
2023-05-17T02:28:56.359Z,50.849583
2023-05-17T02:29:56.367Z,50.849556
2023-05-17T02:30:56.317Z,50.849590
2023-05-17T02:31:56.313Z,50.849590
2023-05-17T02:32:56.332Z,50.849598
2023-05-17T02:33:56.376Z,50.849590
2023-05-17T02:34:56.300Z,50.849567
2023-05-17T02:35:56.301Z,50.849579
2023-05-17T02:36:56.270Z,50.849583
2023-05-17T02:37:56.274Z,50.849571
2023-05-17T02:38:56.241Z,50.849560
2023-05-17T02:39:56.259Z,50.849590
2023-05-17T02:40:56.369Z,50.849575
2023-05-17T02:41:56.295Z,50.849567
2023-05-17T02:42:56.216Z,50.849575
2023-05-17T02:43:56.222Z,50.849556
2023-05-17T02:44:56.241Z,50.849529
2023-05-17T02:45:56.211Z,50.849541
2023-05-17T02:46:56.194Z,50.849560
2023-05-17T02:47:56.220Z,50.849579
2023-05-17T02:48:56.171Z,50.849560
2023-05-17T02:49:56.161Z,50.849567
2023-05-17T02:50:56.156Z,50.849556
2023-05-17T02:51:56.179Z,50.849579
2023-05-17T02:52:56.132Z,50.849590
2023-05-17T02:53:56.163Z,50.849575
2023-05-17T02:54:56.123Z,50.849575
2023-05-17T02:55:56.127Z,50.849571
2023-05-17T02:56:56.304Z,50.849567
2023-05-17T02:57:56.095Z,50.849560
2023-05-17T02:58:56.096Z,50.849583
2023-05-17T02:59:56.109Z,50.849583
2023-05-17T03:00:56.076Z,50.849606
2023-05-17T03:01:56.067Z,50.849583
2023-05-17T03:02:56.161Z,50.849575
2023-05-17T03:03:56.186Z,50.849537
2023-05-17T03:04:56.058Z,50.849552
2023-05-17T03:05:56.041Z,50.849579
2023-05-17T03:06:56.024Z,50.849594
2023-05-17T03:07:56.025Z,50.849594
2023-05-17T03:08:56.008Z,50.849583
2023-05-17T03:09:56.004Z,50.849579
2023-05-17T03:10:56.036Z,50.849541
2023-05-17T03:11:56.889Z,50.849556
2023-05-17T03:12:56.114Z,50.849552
2023-05-17T03:13:55.987Z,50.849552
2023-05-17T03:14:55.957Z,50.849560
2023-05-17T03:15:55.970Z,50.849560
2023-05-17T03:16:55.971Z,50.849545
2023-05-17T03:17:56.001Z,50.849560
2023-05-17T03:18:56.097Z,50.849564
2023-05-17T03:19:55.962Z,50.849567
2023-05-17T03:20:55.918Z,50.849579
2023-05-17T03:21:55.943Z,50.849583
2023-05-17T03:22:55.905Z,50.849564
2023-05-17T03:23:55.896Z,50.849564
2023-05-17T03:24:55.884Z,50.849571
2023-05-17T03:25:55.894Z,50.849583
2023-05-17T03:26:55.869Z,50.849567
2023-05-17T03:27:55.899Z,50.849567
2023-05-17T03:28:55.926Z,50.849552
2023-05-17T03:29:55.869Z,50.849552
2023-05-17T03:30:55.875Z,50.849537
2023-05-17T03:31:55.884Z,50.849545
2023-05-17T03:32:55.866Z,50.849556
2023-05-17T03:33:55.889Z,50.849556
2023-05-17T03:34:55.796Z,50.849545
2023-05-17T03:35:55.807Z,50.849541
2023-05-17T03:36:55.793Z,50.849548
2023-05-17T03:37:55.809Z,50.849533
2023-05-17T03:38:55.772Z,50.849541
2023-05-17T03:39:55.777Z,50.849533
2023-05-17T03:40:55.767Z,50.849545
2023-05-17T03:41:55.778Z,50.849552
2023-05-17T03:42:55.759Z,50.849552
2023-05-17T03:43:55.740Z,50.849564
2023-05-17T03:44:55.848Z,50.849552
2023-05-17T03:45:55.730Z,50.849537
2023-05-17T03:46:55.716Z,50.849537
2023-05-17T03:47:55.793Z,50.849541
2023-05-17T03:48:55.708Z,50.849564
2023-05-17T03:49:55.787Z,50.849567
2023-05-17T03:50:55.671Z,50.849579
2023-05-17T03:51:55.677Z,50.849541
2023-05-17T03:52:55.670Z,50.849525
2023-05-17T03:53:55.717Z,50.849529
2023-05-17T03:54:55.640Z,50.849483
2023-05-17T03:55:55.632Z,50.849491
2023-05-17T03:56:55.632Z,50.849533
2023-05-17T03:57:55.605Z,50.849552
2023-05-17T03:58:55.608Z,50.849560
2023-05-17T03:59:55.602Z,50.849529
2023-05-17T04:00:55.789Z,50.849518
2023-05-17T04:01:55.599Z,50.849537
2023-05-17T04:02:55.637Z,50.849560
2023-05-17T04:03:55.630Z,50.849548
2023-05-17T04:04:55.819Z,50.849525
2023-05-17T04:05:55.587Z,50.849533
2023-05-17T04:06:55.548Z,50.849518
2023-05-17T04:07:55.553Z,50.849533
2023-05-17T04:08:55.568Z,50.849541
2023-05-17T04:09:55.527Z,50.849518
2023-05-17T04:10:55.529Z,50.849503
2023-05-17T04:11:55.521Z,50.849499
2023-05-17T04:12:55.495Z,50.849506
2023-05-17T04:13:55.503Z,50.849491
2023-05-17T04:14:55.472Z,50.849510
2023-05-17T04:15:55.496Z,50.849491
2023-05-17T04:16:55.591Z,50.849533
2023-05-17T04:17:55.500Z,50.849499
2023-05-17T04:18:55.575Z,50.849541
2023-05-17T04:19:55.528Z,50.849560
2023-05-17T04:20:55.449Z,50.849529
2023-05-17T04:21:55.423Z,50.849548
2023-05-17T04:22:55.455Z,50.849552
2023-05-17T04:23:55.484Z,50.849468
2023-05-17T04:24:55.442Z,50.849522
2023-05-17T04:25:55.450Z,50.849514
2023-05-17T04:26:55.391Z,50.849556
2023-05-17T04:27:55.409Z,50.849510
2023-05-17T04:28:55.416Z,50.849487
2023-05-17T04:29:55.357Z,50.849514
2023-05-17T04:30:55.352Z,50.849514
2023-05-17T04:31:55.461Z,50.849499
2023-05-17T04:32:55.442Z,50.849464
2023-05-17T04:33:55.387Z,50.849461
2023-05-17T04:34:55.372Z,50.849476
2023-05-17T04:35:55.305Z,50.849468
2023-05-17T04:36:55.324Z,50.849476
2023-05-17T04:37:55.285Z,50.849468
2023-05-17T04:38:55.300Z,50.849495
2023-05-17T04:39:55.273Z,50.849522
2023-05-17T04:40:55.296Z,50.849499
2023-05-17T04:41:55.301Z,50.849487
2023-05-17T04:42:55.255Z,50.849522
2023-05-17T04:43:55.238Z,50.849499
2023-05-17T04:44:55.233Z,50.849503
2023-05-17T04:45:55.210Z,50.849476
2023-05-17T04:46:55.260Z,50.849487
2023-05-17T04:47:55.383Z,50.849476
2023-05-17T04:48:55.379Z,50.849525
2023-05-17T04:49:55.184Z,50.849506
2023-05-17T04:50:55.189Z,50.849510
2023-05-17T04:51:55.186Z,50.849514
2023-05-17T04:52:55.173Z,50.849499
2023-05-17T04:53:55.157Z,50.849499
2023-05-17T04:54:55.269Z,50.849487
2023-05-17T04:55:55.182Z,50.849499
2023-05-17T04:56:55.131Z,50.849499
2023-05-17T04:57:55.236Z,50.849514
2023-05-17T04:58:55.253Z,50.849510
2023-05-17T04:59:55.142Z,50.849503
2023-05-17T05:00:55.094Z,50.849499
2023-05-17T05:01:55.066Z,50.849522
2023-05-17T05:02:55.125Z,50.849518
2023-05-17T05:03:55.105Z,50.849529
2023-05-17T05:04:55.230Z,50.849518
2023-05-17T05:05:55.093Z,50.849503
2023-05-17T05:06:55.085Z,50.849518
2023-05-17T05:07:55.038Z,50.849514
2023-05-17T05:08:55.028Z,50.849445
2023-05-17T05:09:55.004Z,50.849442
2023-05-17T05:10:55.008Z,50.849468
2023-05-17T05:11:55.032Z,50.849506
2023-05-17T05:12:55.917Z,50.849491
2023-05-17T05:13:54.978Z,50.849487
2023-05-17T05:14:55.207Z,50.849464
2023-05-17T05:15:54.968Z,50.849468
2023-05-17T05:16:54.960Z,50.849491
2023-05-17T05:17:55.117Z,50.849468
2023-05-17T05:18:55.095Z,50.849480
2023-05-17T05:19:55.039Z,50.849525
2023-05-17T05:20:54.933Z,50.849541
2023-05-17T05:21:54.923Z,50.849522
2023-05-17T05:22:54.908Z,50.849518
2023-05-17T05:23:54.960Z,50.849491
2023-05-17T05:24:54.924Z,50.849495
2023-05-17T05:25:54.874Z,50.849560
2023-05-17T05:26:54.887Z,50.849583
2023-05-17T05:27:54.897Z,50.849583
2023-05-17T05:28:54.874Z,50.849545
2023-05-17T05:29:54.850Z,50.849506
2023-05-17T05:30:54.867Z,50.849461
2023-05-17T05:31:54.849Z,50.849506
2023-05-17T05:32:54.889Z,50.849453
2023-05-17T05:33:55.054Z,50.849506
2023-05-17T05:34:54.834Z,50.849525
2023-05-17T05:35:54.791Z,50.849518
2023-05-17T05:36:54.862Z,50.849491
2023-05-17T05:37:54.782Z,50.849499
2023-05-17T05:38:54.817Z,50.849503
2023-05-17T05:39:54.760Z,50.849483
2023-05-17T05:40:54.772Z,50.849453
2023-05-17T05:41:54.830Z,50.849483
2023-05-17T05:42:55.505Z,50.849514
2023-05-17T05:43:54.742Z,50.849480
2023-05-17T05:44:54.769Z,50.849476
2023-05-17T05:45:54.705Z,50.849483
2023-05-17T05:46:54.718Z,50.849506
2023-05-17T05:47:55.547Z,50.849510
2023-05-17T05:48:54.763Z,50.849483
2023-05-17T05:49:54.802Z,50.849506
2023-05-17T05:50:54.689Z,50.849503
2023-05-17T05:51:54.672Z,50.849506
2023-05-17T05:53:00.242Z,50.849522
2023-05-17T05:53:55.840Z,50.849510
2023-05-17T05:54:54.676Z,50.849503
2023-05-17T05:55:54.631Z,50.849480
2023-05-17T05:56:54.641Z,50.849472
2023-05-17T05:57:54.633Z,50.849514
2023-05-17T05:58:54.612Z,50.849506
2023-05-17T05:59:54.622Z,50.849510
2023-05-17T06:00:54.607Z,50.849483
2023-05-17T06:01:54.591Z,50.849514
2023-05-17T06:02:54.621Z,50.849522
2023-05-17T06:03:54.566Z,50.849495
2023-05-17T06:04:54.595Z,50.849518
2023-05-17T06:05:54.616Z,50.849525
2023-05-17T06:06:54.681Z,50.849525
2023-05-17T06:07:54.551Z,50.849510
2023-05-17T06:08:54.591Z,50.849499
2023-05-17T06:09:54.536Z,50.849487
2023-05-17T06:10:54.556Z,50.849499
2023-05-17T06:11:56.593Z,50.849503
2023-05-17T06:12:54.517Z,50.849518
2023-05-17T06:13:54.589Z,50.849495
2023-05-17T06:14:54.563Z,50.849510
2023-05-17T06:15:54.591Z,50.849529
2023-05-17T06:16:54.499Z,50.849525
2023-05-17T06:17:54.528Z,50.849529
2023-05-17T06:18:54.661Z,50.849522
2023-05-17T06:19:54.515Z,50.849541
2023-05-17T06:20:54.488Z,50.849529
2023-05-17T06:21:54.455Z,50.849495
2023-05-17T06:22:54.576Z,50.849537
2023-05-17T06:23:54.573Z,50.849529
2023-05-17T06:24:54.602Z,50.849533
2023-05-17T06:25:55.005Z,50.849487
2023-05-17T06:26:54.449Z,50.849503
2023-05-17T06:27:54.375Z,50.849506
2023-05-17T06:28:54.379Z,50.849537
2023-05-17T06:29:54.382Z,50.849522
2023-05-17T06:30:54.408Z,50.849514
2023-05-17T06:31:54.365Z,50.849541
2023-05-17T06:32:54.345Z,50.849525
2023-05-17T06:33:54.600Z,50.849510
2023-05-17T06:34:54.337Z,50.849518
2023-05-17T06:35:57.194Z,50.849503
2023-05-17T06:36:54.361Z,50.849514
2023-05-17T06:37:54.298Z,50.849499
2023-05-17T06:38:54.332Z,50.849548
2023-05-17T06:40:00.043Z,50.849529
2023-05-17T06:40:55.497Z,50.849541
2023-05-17T06:41:54.255Z,50.849518
2023-05-17T06:42:54.262Z,50.849503
2023-05-17T06:43:54.241Z,50.849514
2023-05-17T06:44:54.275Z,50.849514
2023-05-17T06:45:54.264Z,50.849522
2023-05-17T06:46:54.235Z,50.849541
2023-05-17T06:47:54.252Z,50.849522
2023-05-17T06:48:55.857Z,50.849522
2023-05-17T06:49:54.210Z,50.849525
2023-05-17T06:50:54.202Z,50.849567
2023-05-17T06:51:54.253Z,50.849545
2023-05-17T06:52:54.174Z,50.849529
2023-05-17T06:53:54.210Z,50.849518
2023-05-17T06:54:54.266Z,50.849525
2023-05-17T06:55:54.254Z,50.849510
2023-05-17T06:56:54.280Z,50.849514
2023-05-17T06:57:54.133Z,50.849529
2023-05-17T06:58:54.136Z,50.849506
2023-05-17T06:59:54.142Z,50.849533
2023-05-17T07:00:54.107Z,50.849514
2023-05-17T07:01:54.215Z,50.849487
2023-05-17T07:02:54.186Z,50.849510
2023-05-17T07:03:54.117Z,50.849541
2023-05-17T07:04:54.214Z,50.849525
2023-05-17T07:05:54.080Z,50.849518
2023-05-17T07:06:54.086Z,50.849495
2023-05-17T07:07:54.071Z,50.849518
2023-05-17T07:08:54.062Z,50.849499
2023-05-17T07:09:54.047Z,50.849487
2023-05-17T07:10:54.062Z,50.849491
2023-05-17T07:11:54.021Z,50.849506
2023-05-17T07:12:54.154Z,50.849533
2023-05-17T07:13:54.559Z,50.849518
2023-05-17T07:14:54.018Z,50.849518
2023-05-17T07:15:54.144Z,50.849522
2023-05-17T07:16:54.291Z,50.849525
2023-05-17T07:17:54.037Z,50.849525
2023-05-17T07:18:54.098Z,50.849499
2023-05-17T07:19:54.142Z,50.849545
2023-05-17T07:20:53.982Z,50.849522
2023-05-17T07:21:53.997Z,50.849541
2023-05-17T07:22:53.995Z,50.849556
2023-05-17T07:23:53.951Z,50.849545
2023-05-17T07:24:53.951Z,50.849560
2023-05-17T07:25:53.987Z,50.849560
2023-05-17T07:26:53.910Z,50.849537
2023-05-17T07:27:53.900Z,50.849590
2023-05-17T07:28:54.120Z,50.849613
2023-05-17T07:29:53.974Z,50.849552
2023-05-17T07:30:53.956Z,50.849503
2023-05-17T07:31:53.861Z,50.849525
2023-05-17T07:32:53.977Z,50.849560
2023-05-17T07:33:53.872Z,50.849552
2023-05-17T07:34:53.878Z,50.849514
2023-05-17T07:35:53.885Z,50.849506
2023-05-17T07:36:53.845Z,50.849545
2023-05-17T07:37:53.829Z,50.849621
2023-05-17T07:38:53.839Z,50.849628
2023-05-17T07:39:53.876Z,50.849529
2023-05-17T07:40:53.808Z,50.849571
2023-05-17T07:41:53.818Z,50.849556
2023-05-17T07:42:53.805Z,50.849560
2023-05-17T07:43:53.779Z,50.849522
2023-05-17T07:44:53.833Z,50.849571
2023-05-17T07:45:53.788Z,50.849586
2023-05-17T07:46:53.795Z,50.849541
2023-05-17T07:47:53.782Z,50.849503
2023-05-17T07:48:55.767Z,50.849491
2023-05-17T07:49:53.714Z,50.849506
2023-05-17T07:50:53.749Z,50.849552
2023-05-17T07:51:53.729Z,50.849552
2023-05-17T07:52:53.714Z,50.849495
2023-05-17T07:53:53.725Z,50.849579
2023-05-17T07:54:53.684Z,50.849545
2023-05-17T07:55:53.680Z,50.849506
2023-05-17T07:56:53.682Z,50.849567
2023-05-17T07:57:53.670Z,50.849579
2023-05-17T07:58:53.656Z,50.849575
2023-05-17T07:59:53.656Z,50.849564
2023-05-17T08:00:53.695Z,50.849575
2023-05-17T08:01:53.651Z,50.849621
2023-05-17T08:02:53.667Z,50.849548
2023-05-17T08:03:53.618Z,50.849537
2023-05-17T08:04:53.650Z,50.849586
2023-05-17T08:05:53.693Z,50.849579
2023-05-17T08:06:53.609Z,50.849537
2023-05-17T08:07:53.596Z,50.849525
2023-05-17T08:08:53.595Z,50.849529
2023-05-17T08:09:53.581Z,50.849545
2023-05-17T08:10:53.599Z,50.849545
2023-05-17T08:11:53.576Z,50.849537
2023-05-17T08:12:53.742Z,50.849571
2023-05-17T08:13:53.550Z,50.849522
2023-05-17T08:14:53.524Z,50.849510
2023-05-17T08:16:01.127Z,50.849575
2023-05-17T08:16:54.639Z,50.849560
2023-05-17T08:17:53.565Z,50.849552
2023-05-17T08:18:53.585Z,50.849514
2023-05-17T08:19:53.559Z,50.849541
2023-05-17T08:20:53.483Z,50.849525
2023-05-17T08:21:53.478Z,50.849537
2023-05-17T08:22:53.495Z,50.849575
2023-05-17T08:23:53.490Z,50.849525
2023-05-17T08:24:53.640Z,50.849522
2023-05-17T08:25:53.449Z,50.849560
2023-05-17T08:26:53.455Z,50.849525
2023-05-17T08:27:53.438Z,50.849522
2023-05-17T08:28:53.434Z,50.849518
2023-05-17T08:29:53.465Z,50.849533
2023-05-17T08:30:53.402Z,50.849529
2023-05-17T08:31:53.444Z,50.849579
2023-05-17T08:32:53.498Z,50.849537
2023-05-17T08:33:53.481Z,50.849529
2023-05-17T08:34:53.457Z,50.849522
2023-05-17T08:35:54.073Z,50.849525
2023-05-17T08:36:53.392Z,50.849529
2023-05-17T08:37:53.361Z,50.849537
2023-05-17T08:38:53.404Z,50.849564
2023-05-17T08:39:53.343Z,50.849560
2023-05-17T08:40:53.365Z,50.849518
2023-05-17T08:41:53.342Z,50.849529
2023-05-17T08:42:53.321Z,50.849525
2023-05-17T08:43:53.347Z,50.849564
2023-05-17T08:44:53.304Z,50.849548
2023-05-17T08:45:53.284Z,50.849541
2023-05-17T08:46:53.303Z,50.849556
2023-05-17T08:47:53.292Z,50.849541
2023-05-17T08:48:53.429Z,50.849503
2023-05-17T08:49:53.250Z,50.849510
2023-05-17T08:50:53.267Z,50.849518
2023-05-17T08:51:53.263Z,50.849495
2023-05-17T08:52:53.332Z,50.849503
2023-05-17T08:53:53.263Z,50.849525
2023-05-17T08:54:53.205Z,50.849525
2023-05-17T08:55:53.243Z,50.849518
2023-05-17T08:56:53.210Z,50.849503
2023-05-17T08:57:53.277Z,50.849529
2023-05-17T08:58:56.940Z,50.849522
2023-05-17T08:59:53.175Z,50.849522
2023-05-17T09:00:53.158Z,50.849525
2023-05-17T09:01:53.177Z,50.849525
2023-05-17T09:02:53.163Z,50.849525
2023-05-17T09:03:53.140Z,50.849529
2023-05-17T09:04:53.248Z,50.849533
2023-05-17T09:05:53.245Z,50.849529
2023-05-17T09:06:53.178Z,50.849537
2023-05-17T09:07:53.105Z,50.849541
2023-05-17T09:08:53.197Z,50.849564
2023-05-17T09:09:53.099Z,50.849541
2023-05-17T09:10:53.060Z,50.849510
2023-05-17T09:11:53.146Z,50.849564
2023-05-17T09:12:53.080Z,50.849545
2023-05-17T09:13:53.053Z,50.849567
2023-05-17T09:14:53.052Z,50.849560
2023-05-17T09:15:53.038Z,50.849556
2023-05-17T09:16:53.003Z,50.849545
2023-05-17T09:17:53.346Z,50.849537
2023-05-17T09:18:53.147Z,50.849548
2023-05-17T09:19:53.172Z,50.849541
2023-05-17T09:20:53.133Z,50.849541
2023-05-17T09:21:52.996Z,50.849571
2023-05-17T09:22:52.976Z,50.849552
2023-05-17T09:24:04.662Z,50.849556
2023-05-17T09:24:53.948Z,50.849525
2023-05-17T09:25:52.957Z,50.849518
2023-05-17T09:26:52.962Z,50.849514
2023-05-17T09:27:52.921Z,50.849518
2023-05-17T09:28:52.912Z,50.849522
2023-05-17T09:29:52.933Z,50.849506
2023-05-17T09:30:52.908Z,50.849522
2023-05-17T09:31:52.891Z,50.849503
2023-05-17T09:32:52.886Z,50.849503
2023-05-17T09:33:52.961Z,50.849491
2023-05-17T09:34:52.865Z,50.849514
2023-05-17T09:35:52.861Z,50.849510
2023-05-17T09:36:52.866Z,50.849499
2023-05-17T09:37:52.893Z,50.849510
2023-05-17T09:38:52.851Z,50.849491
2023-05-17T09:39:52.837Z,50.849499
2023-05-17T09:40:52.825Z,50.849506
2023-05-17T09:41:52.815Z,50.849491
2023-05-17T09:42:52.812Z,50.849495
2023-05-17T09:43:52.808Z,50.849506
2023-05-17T09:44:52.787Z,50.849541
2023-05-17T09:45:52.779Z,50.849499
2023-05-17T09:46:52.753Z,50.849499
2023-05-17T09:47:52.979Z,50.849525
2023-05-17T09:48:52.972Z,50.849495
2023-05-17T09:49:52.741Z,50.849487
2023-05-17T09:50:52.726Z,50.849495
2023-05-17T09:51:52.728Z,50.849491
2023-05-17T09:52:52.712Z,50.849487
2023-05-17T09:53:52.772Z,50.849483
2023-05-17T09:54:52.713Z,50.849514
2023-05-17T09:55:52.701Z,50.849506
2023-05-17T09:56:52.695Z,50.849510
2023-05-17T09:57:52.676Z,50.849499
2023-05-17T09:58:52.692Z,50.849503
2023-05-17T09:59:52.679Z,50.849495
2023-05-17T10:00:52.638Z,50.849503
2023-05-17T10:01:52.651Z,50.849491
2023-05-17T10:02:52.712Z,50.849480
2023-05-17T10:03:52.690Z,50.849476
2023-05-17T10:04:52.715Z,50.849495
2023-05-17T10:05:52.638Z,50.849506
2023-05-17T10:06:52.740Z,50.849495
2023-05-17T10:07:52.593Z,50.849491
2023-05-17T10:08:52.577Z,50.849503
2023-05-17T10:09:52.579Z,50.849510
2023-05-17T10:10:52.552Z,50.849522
2023-05-17T10:11:52.657Z,50.849495
2023-05-17T10:12:52.556Z,50.849495
2023-05-17T10:13:52.539Z,50.849510
2023-05-17T10:14:52.552Z,50.849483
2023-05-17T10:15:52.570Z,50.849457
2023-05-17T10:16:52.516Z,50.849491
2023-05-17T10:17:52.668Z,50.849483
2023-05-17T10:18:52.602Z,50.849472
2023-05-17T10:19:52.693Z,50.849487
2023-05-17T10:20:52.511Z,50.849518
2023-05-17T10:21:52.502Z,50.849510
2023-05-17T10:22:52.466Z,50.849499
2023-05-17T10:23:52.488Z,50.849499
2023-05-17T10:24:52.442Z,50.849514
2023-05-17T10:25:52.452Z,50.849503
2023-05-17T10:26:52.438Z,50.849483
2023-05-17T10:27:52.440Z,50.849518
2023-05-17T10:28:52.423Z,50.849487
2023-05-17T10:29:52.451Z,50.849491
2023-05-17T10:30:52.400Z,50.849483
2023-05-17T10:31:52.407Z,50.849468
2023-05-17T10:32:52.473Z,50.849483
2023-05-17T10:33:52.424Z,50.849503
2023-05-17T10:35:05.832Z,50.849495
2023-05-17T10:35:53.388Z,50.849514
2023-05-17T10:36:52.356Z,50.849510
2023-05-17T10:37:52.360Z,50.849514
2023-05-17T10:38:52.700Z,50.849483
2023-05-17T10:39:52.342Z,50.849461
2023-05-17T10:40:52.375Z,50.849495
2023-05-17T10:41:53.085Z,50.849499
2023-05-17T10:42:52.303Z,50.849529
2023-05-17T10:43:52.312Z,50.849514
2023-05-17T10:44:52.296Z,50.849491
2023-05-17T10:45:52.312Z,50.849510
2023-05-17T10:46:53.080Z,50.849522
2023-05-17T10:47:52.322Z,50.849522
2023-05-17T10:48:52.335Z,50.849518
2023-05-17T10:49:52.469Z,50.849518
2023-05-17T10:51:01.002Z,50.849518
2023-05-17T10:51:53.262Z,50.849522
2023-05-17T10:52:52.210Z,50.849533
2023-05-17T10:53:52.211Z,50.849522
2023-05-17T10:54:52.193Z,50.849518
2023-05-17T10:55:52.201Z,50.849518
2023-05-17T10:56:52.202Z,50.849541
2023-05-17T10:57:52.192Z,50.849545
2023-05-17T10:58:52.181Z,50.849533
2023-05-17T10:59:52.175Z,50.849541
2023-05-17T11:00:53.884Z,50.849552
2023-05-17T11:01:52.143Z,50.849560
2023-05-17T11:02:52.202Z,50.849541
2023-05-17T11:03:52.139Z,50.849545
2023-05-17T11:04:52.157Z,50.849552
2023-05-17T11:05:52.460Z,50.849537
2023-05-17T11:06:52.298Z,50.849537
2023-05-17T11:07:52.152Z,50.849567
2023-05-17T11:08:52.122Z,50.849541
2023-05-17T11:09:52.086Z,50.849529
2023-05-17T11:10:52.063Z,50.849506
2023-05-17T11:11:52.066Z,50.849529
2023-05-17T11:12:52.071Z,50.849525
2023-05-17T11:13:52.079Z,50.849541
2023-05-17T11:14:52.152Z,50.849529
2023-05-17T11:15:52.041Z,50.849548
2023-05-17T11:16:52.014Z,50.849529
2023-05-17T11:17:52.064Z,50.849518
2023-05-17T11:18:52.233Z,50.849537
2023-05-17T11:19:52.103Z,50.849525
2023-05-17T11:20:52.293Z,50.849514
2023-05-17T11:21:51.995Z,50.849537
2023-05-17T11:22:51.964Z,50.849499
2023-05-17T11:23:51.966Z,50.849499
2023-05-17T11:24:51.962Z,50.849510